Sea-land Lightning — WDB9986 — position and weather

sailwx.info

Track history (hours):
 
Tides and Currents Weather Stations Pressure Air Temp Water Temp Dewpoint Dewpoint Depression Visibility Wind Speed Wind Dir Waves Ship Positions

Sea-land Lightning

Owner: MAERSK LINE, LIMITED, NORFOLK, VA. More information available from US FCC via Universal Licensing System.

Last reported at 2014-Dec-21 00:00 UTC. Time now 2014-Dec-22 12:04 UTC.
Position N 41°36' E 160°00'.

Type: Ship (hazmat cat A). MMSI: 303316000.

Wind from 170 at 30 knots

Waves 2.0 meters (7 feet), 6 second period

Barometer 1023.0 mb
Air temperature 8.0 ° C
Visibility: greater than 10.8 NM
Dewpoint 6.0 ° C
Water temperature 10.0 ° C

Date/timePositionNaut miles runAvg speedWind from/ knotsBaromVisibWave heightAir tempDewpointWater temp
2014-Dec-21 00:00N 41°36' E 160°00'33818.8 170 / 301023.010.8 2.0 8.0 6.010.0
2014-Dec-20 06:00N 39°54' E 152°54'11919.9 180 / 101027.010.8 0.512.0 6.112.0
2014-Dec-20 00:00N 39°00' E 150°36'20018.2 200 / 51030.010.8 0.510.0 8.114.0
2014-Dec-19 13:00N 37°30' E 146°48'37719.4 260 / 131032.010.8 1.0 8.0 3.816.0
2014-Dec-18 17:33N 34°57' E 139°40'1515.6
2014-Dec-18 16:33N 35°12' E 139°46'1212.1
2014-Dec-18 15:33N 35°23' E 139°41'1 1.0
2014-Dec-18 14:33N 35°24' E 139°41'0 0.0
2014-Dec-18 13:33N 35°24' E 139°41'0 0.0
2014-Dec-18 12:33N 35°24' E 139°41'0 0.0
2014-Dec-18 11:33N 35°24' E 139°41'0 0.0
2014-Dec-18 10:33N 35°24' E 139°41'3 2.9
2014-Dec-18 09:33N 35°22' E 139°42'9 9.2
2014-Dec-18 08:33N 35°13' E 139°47'  
2014-Dec-16 04:19N 34°01' E 130°52'32 6.7
2014-Dec-15 23:33N 33°51' E 130°15'1312.7
2014-Dec-15 22:33N 33°39' E 130°19'4 4.2
2014-Dec-15 21:33N 33°39' E 130°24'0 0.0
2014-Dec-15 20:33N 33°39' E 130°24'0 0.0
2014-Dec-15 19:33N 33°39' E 130°24'0 0.0
2014-Dec-15 18:33N 33°39' E 130°24'0 0.0
2014-Dec-15 17:33N 33°39' E 130°24'0 0.0
2014-Dec-15 16:33N 33°39' E 130°24'0 0.0
2014-Dec-15 15:33N 33°39' E 130°24'4 3.9
2014-Dec-15 14:33N 33°38' E 130°20'8 7.7
2014-Dec-15 13:33N 33°45' E 130°15'  
2014-Dec-12 00:00N 35°30' E 122°06'7010.5 230 1015.2 0.0 2.0-10.0 8.8
2014-Dec-11 17:18N 35°56' E 120°46'1418.1
2014-Dec-11 16:33N 35°59' E 120°30'1312.7
2014-Dec-11 15:33N 36°02' E 120°14'1 1.3
2014-Dec-11 14:32N 36°01' E 120°13'0 0.0
2014-Dec-11 13:28N 36°01' E 120°13'0 0.0
2014-Dec-11 12:22N 36°01' E 120°13'0 0.0
2014-Dec-11 11:10N 36°01' E 120°13'0 0.0
2014-Dec-11 10:10N 36°01' E 120°13'0 0.0
2014-Dec-11 09:16N 36°01' E 120°13'0 0.0
2014-Dec-11 08:28N 36°01' E 120°13'0 0.0
2014-Dec-11 07:33N 36°01' E 120°13'0 0.0
2014-Dec-11 06:28N 36°01' E 120°13'0 0.0
2014-Dec-11 04:31N 36°01' E 120°13'0 0.0
2014-Dec-11 03:28N 36°01' E 120°13'0 0.0
2014-Dec-11 00:06N 36°01' E 120°13'  
Track history (hours):
 
Tides and Currents Weather Stations Pressure Air Temp Water Temp Dewpoint Dewpoint Depression Visibility Wind Speed Wind Dir Waves Ship Positions

Sea-land Lightning

Owner: MAERSK LINE, LIMITED, NORFOLK, VA. More information available from US FCC via Universal Licensing System.

Last reported at 2014-Dec-21 00:00 UTC. Time now 2014-Dec-22 12:04 UTC.
Position N 41°36' E 160°00'.

Type: Ship (hazmat cat A). MMSI: 303316000.

Wind from 170 at 30 knots

Waves 2.0 meters (7 feet), 6 second period

Barometer 1023.0 mb
Air temperature 8.0 ° C
Visibility: greater than 10.8 NM
Dewpoint 6.0 ° C
Water temperature 10.0 ° C

Date/timePositionNaut miles runAvg speedWind from/ knotsBaromVisibWave heightAir tempDewpointWater temp
2014-Dec-21 00:00N 41°36' E 160°00'33818.8 170 / 301023.010.8 2.0 8.0 6.010.0
2014-Dec-20 06:00N 39°54' E 152°54'11919.9 180 / 101027.010.8 0.512.0 6.112.0
2014-Dec-20 00:00N 39°00' E 150°36'20018.2 200 / 51030.010.8 0.510.0 8.114.0
2014-Dec-19 13:00N 37°30' E 146°48'37719.4 260 / 131032.010.8 1.0 8.0 3.816.0
2014-Dec-18 17:33N 34°57' E 139°40'1515.6
2014-Dec-18 16:33N 35°12' E 139°46'1212.1
2014-Dec-18 15:33N 35°23' E 139°41'1 1.0
2014-Dec-18 14:33N 35°24' E 139°41'0 0.0
2014-Dec-18 13:33N 35°24' E 139°41'0 0.0
2014-Dec-18 12:33N 35°24' E 139°41'0 0.0
2014-Dec-18 11:33N 35°24' E 139°41'0 0.0
2014-Dec-18 10:33N 35°24' E 139°41'3 2.9
2014-Dec-18 09:33N 35°22' E 139°42'9 9.2
2014-Dec-18 08:33N 35°13' E 139°47'  
2014-Dec-16 04:19N 34°01' E 130°52'32 6.7
2014-Dec-15 23:33N 33°51' E 130°15'1312.7
2014-Dec-15 22:33N 33°39' E 130°19'4 4.2
2014-Dec-15 21:33N 33°39' E 130°24'0 0.0
2014-Dec-15 20:33N 33°39' E 130°24'0 0.0
2014-Dec-15 19:33N 33°39' E 130°24'0 0.0
2014-Dec-15 18:33N 33°39' E 130°24'0 0.0
2014-Dec-15 17:33N 33°39' E 130°24'0 0.0
2014-Dec-15 16:33N 33°39' E 130°24'0 0.0
2014-Dec-15 15:33N 33°39' E 130°24'4 3.9
2014-Dec-15 14:33N 33°38' E 130°20'8 7.7
2014-Dec-15 13:33N 33°45' E 130°15'  
2014-Dec-12 00:00N 35°30' E 122°06'7010.5 230 1015.2 0.0 2.0-10.0 8.8
2014-Dec-11 17:18N 35°56' E 120°46'1418.1
2014-Dec-11 16:33N 35°59' E 120°30'1312.7
2014-Dec-11 15:33N 36°02' E 120°14'1 1.3
2014-Dec-11 14:32N 36°01' E 120°13'0 0.0
2014-Dec-11 13:28N 36°01' E 120°13'0 0.0
2014-Dec-11 12:22N 36°01' E 120°13'0 0.0
2014-Dec-11 11:10N 36°01' E 120°13'0 0.0
2014-Dec-11 10:10N 36°01' E 120°13'0 0.0
2014-Dec-11 09:16N 36°01' E 120°13'0 0.0
2014-Dec-11 08:28N 36°01' E 120°13'0 0.0
2014-Dec-11 07:33N 36°01' E 120°13'0 0.0
2014-Dec-11 06:28N 36°01' E 120°13'0 0.0
2014-Dec-11 04:31N 36°01' E 120°13'0 0.0
2014-Dec-11 03:28N 36°01' E 120°13'0 0.0
2014-Dec-11 00:06N 36°01' E 120°13'  

Dump ship's entire track history